Time;durP1;ratioP1;P1;durP2;ratioP2;P2;SDS_P1;SDS_P2;PMS_P1;PMS_P2;Temp;Humidity;BMP_temperature;BMP_pressure;BME280_temperature;BME280_humidity;BME280_pressure;Samples;Min_cycle;Max_cycle;Signal;HPM_P1;HPM_P2
2022/03/09 00:01:27;;;;;;;;;;;21.50;25.60;;;;;;453175;261;1611;-39
2022/03/09 00:03:28;;;;;;;;;;;21.50;25.50;;;;;;452820;263;1146;-39
2022/03/09 00:05:30;;;;;;;;;;;21.50;25.50;;;;;;453001;262;1151;-38
2022/03/09 00:07:31;;;;;;;;;;;21.50;25.60;;;;;;447855;266;1207;-38
2022/03/09 00:09:32;;;;;;;;;;;21.50;25.50;;;;;;453154;261;1078;-39
2022/03/09 00:11:34;;;;;;;;;;;21.60;25.60;;;;;;453056;262;2204;-38
2022/03/09 00:13:35;;;;;;;;;;;21.50;25.60;;;;;;447943;266;1083;-38
2022/03/09 00:15:36;;;;;;;;;;;21.50;25.60;;;;;;453141;261;1186;-39
2022/03/09 00:17:38;;;;;;;;;;;21.50;25.60;;;;;;453203;262;1200;-38
2022/03/09 00:19:39;;;;;;;;;;;21.50;25.60;;;;;;447597;266;1113;-39
2022/03/09 00:21:40;;;;;;;;;;;21.50;25.60;;;;;;452789;262;1335;-39
2022/03/09 00:23:42;;;;;;;;;;;21.50;25.60;;;;;;453230;262;1052;-38
2022/03/09 00:25:43;;;;;;;;;;;21.50;25.60;;;;;;447961;266;1409;-39
2022/03/09 00:27:44;;;;;;;;;;;21.50;25.60;;;;;;452931;261;1095;-39
2022/03/09 00:29:46;;;;;;;;;;;21.50;25.60;;;;;;453224;262;1357;-39
2022/03/09 00:31:47;;;;;;;;;;;21.50;25.60;;;;;;447580;266;2156;-39
2022/03/09 00:33:48;;;;;;;;;;;21.50;25.60;;;;;;452837;262;1076;-38
2022/03/09 00:35:49;;;;;;;;;;;21.40;25.60;;;;;;453075;262;1249;-38
2022/03/09 00:37:52;;;;;;;;;;;21.40;25.70;;;;;;447866;266;1061;-38
2022/03/09 00:39:52;;;;;;;;;;;21.40;25.60;;;;;;452720;263;2239;-38
2022/03/09 00:41:53;;;;;;;;;;;21.40;25.60;;;;;;452916;262;1453;-38
2022/03/09 00:43:55;;;;;;;;;;;21.50;25.70;;;;;;453217;262;1008;-38
2022/03/09 00:45:56;;;;;;;;;;;21.40;25.60;;;;;;448035;263;1486;-38
2022/03/09 00:47:57;;;;;;;;;;;21.50;25.60;;;;;;453271;261;1056;-39
2022/03/09 00:49:59;;;;;;;;;;;21.50;25.60;;;;;;452888;262;1322;-39
2022/03/09 00:52:00;;;;;;;;;;;21.50;25.60;;;;;;447626;266;2184;-38
2022/03/09 00:54:01;;;;;;;;;;;21.50;25.60;;;;;;452878;262;1106;-39
2022/03/09 00:56:03;;;;;;;;;;;21.60;25.60;;;;;;453232;262;1224;-39
2022/03/09 00:58:04;;;;;;;;;;;21.50;25.60;;;;;;447811;266;1107;-38
2022/03/09 01:00:05;;;;;;;;;;;21.50;25.60;;;;;;453208;261;1215;-39
2022/03/09 01:02:07;;;;;;;;;;;21.50;25.60;;;;;;453197;262;1255;-39
2022/03/09 01:04:08;;;;;;;;;;;21.50;25.60;;;;;;447785;266;1124;-38
2022/03/09 01:06:09;;;;;;;;;;;21.50;25.70;;;;;;453140;261;1287;-39
2022/03/09 01:08:10;;;;;;;;;;;21.50;25.60;;;;;;453254;262;1204;-38
2022/03/09 01:10:12;;;;;;;;;;;21.50;25.60;;;;;;447714;266;1301;-38
2022/03/09 01:12:13;;;;;;;;;;;21.50;25.60;;;;;;453211;261;2208;-39
2022/03/09 01:14:14;;;;;;;;;;;21.50;25.60;;;;;;452832;263;1107;-38
2022/03/09 01:16:16;;;;;;;;;;;21.40;25.60;;;;;;447734;266;1064;-39
2022/03/09 01:18:17;;;;;;;;;;;21.50;25.60;;;;;;453115;261;1058;-39
2022/03/09 01:20:18;;;;;;;;;;;21.50;25.60;;;;;;453223;262;1049;-39
2022/03/09 01:22:20;;;;;;;;;;;21.50;25.60;;;;;;447783;266;1160;-38
2022/03/09 01:24:21;;;;;;;;;;;21.50;25.70;;;;;;452958;261;1063;-39
2022/03/09 01:26:22;;;;;;;;;;;21.50;25.60;;;;;;453233;262;1087;-39
2022/03/09 01:28:24;;;;;;;;;;;21.50;25.60;;;;;;448048;266;1103;-39
2022/03/09 01:30:25;;;;;;;;;;;21.50;25.60;;;;;;453065;261;1113;-39
2022/03/09 01:32:26;;;;;;;;;;;21.50;25.60;;;;;;453176;262;2134;-39
2022/03/09 01:34:28;;;;;;;;;;;21.50;25.60;;;;;;447977;266;1093;-39
2022/03/09 01:36:29;;;;;;;;;;;21.50;25.60;;;;;;453107;261;1369;-39
2022/03/09 01:38:30;;;;;;;;;;;21.50;25.60;;;;;;453181;262;1048;-39
2022/03/09 01:40:31;;;;;;;;;;;21.50;25.60;;;;;;447990;266;1076;-38
2022/03/09 01:42:33;;;;;;;;;;;21.40;25.60;;;;;;453189;261;1080;-38
2022/03/09 01:44:34;;;;;;;;;;;21.40;25.70;;;;;;453158;262;1217;-38
2022/03/09 01:46:35;;;;;;;;;;;21.40;25.70;;;;;;447692;266;1060;-38
2022/03/09 01:48:37;;;;;;;;;;;21.40;25.60;;;;;;452862;262;1106;-39
2022/03/09 01:50:38;;;;;;;;;;;21.40;25.60;;;;;;452921;262;1068;-39
2022/03/09 01:52:39;;;;;;;;;;;21.40;25.70;;;;;;447746;266;2169;-39
2022/03/09 01:54:41;;;;;;;;;;;21.50;25.70;;;;;;452880;261;1095;-39
2022/03/09 01:56:42;;;;;;;;;;;21.40;25.70;;;;;;452855;262;1113;-38
2022/03/09 01:58:43;;;;;;;;;;;21.40;25.70;;;;;;447656;266;1120;-38
2022/03/09 02:00:45;;;;;;;;;;;21.40;25.60;;;;;;453166;261;1093;-38
2022/03/09 02:02:46;;;;;;;;;;;21.50;25.60;;;;;;452852;262;1017;-39
2022/03/09 02:04:47;;;;;;;;;;;21.40;25.60;;;;;;447609;266;1070;-39
2022/03/09 02:06:49;;;;;;;;;;;21.50;25.60;;;;;;453038;261;1314;-39
2022/03/09 02:11:09;;;;;;;;;;;21.50;25.60;;;;;;447803;266;1115;-38
2022/03/09 02:13:10;;;;;;;;;;;21.40;25.60;;;;;;452796;262;2213;-38
2022/03/09 02:15:12;;;;;;;;;;;21.50;25.60;;;;;;453198;262;1104;-39
2022/03/09 02:17:13;;;;;;;;;;;21.50;25.60;;;;;;447598;266;1118;-38
2022/03/09 02:19:14;;;;;;;;;;;21.50;25.60;;;;;;453265;261;1053;-38
2022/03/09 02:21:16;;;;;;;;;;;21.50;25.70;;;;;;452890;262;1229;-38
2022/03/09 02:23:17;;;;;;;;;;;21.50;25.60;;;;;;447617;266;1338;-38
2022/03/09 02:25:18;;;;;;;;;;;21.40;25.60;;;;;;452914;261;1037;-39
2022/03/09 02:27:20;;;;;;;;;;;21.50;25.60;;;;;;452834;263;1238;-38
2022/03/09 02:29:21;;;;;;;;;;;21.50;25.60;;;;;;448025;266;1240;-39
2022/03/09 02:31:23;;;;;;;;;;;21.50;25.60;;;;;;452898;261;1100;-39
2022/03/09 02:33:24;;;;;;;;;;;21.50;25.70;;;;;;453127;262;2212;-38
2022/03/09 02:35:25;;;;;;;;;;;21.50;25.70;;;;;;453233;262;1014;-38
2022/03/09 02:37:26;;;;;;;;;;;21.40;25.70;;;;;;447922;266;1184;-39
2022/03/09 02:39:28;;;;;;;;;;;21.50;25.70;;;;;;453191;261;1055;-39
2022/03/09 02:41:33;;;;;;;;;;;21.50;25.70;;;;;;453268;262;1080;-39
2022/03/09 02:43:30;;;;;;;;;;;21.50;25.60;;;;;;447501;265;2201;-39
2022/03/09 02:45:32;;;;;;;;;;;21.50;25.70;;;;;;453283;261;1071;-39
2022/03/09 02:47:33;;;;;;;;;;;21.40;25.70;;;;;;452877;263;1068;-38
2022/03/09 02:49:34;;;;;;;;;;;21.50;25.70;;;;;;447964;266;1081;-39
2022/03/09 02:51:36;;;;;;;;;;;21.50;25.70;;;;;;453138;261;1089;-39
2022/03/09 02:53:37;;;;;;;;;;;21.50;25.70;;;;;;452972;262;2149;-39
2022/03/09 02:55:38;;;;;;;;;;;21.50;25.70;;;;;;447655;266;1081;-39
2022/03/09 02:57:40;;;;;;;;;;;21.50;25.70;;;;;;452899;262;1055;-39
2022/03/09 02:59:41;;;;;;;;;;;21.50;25.70;;;;;;452882;263;1071;-38
2022/03/09 03:01:42;;;;;;;;;;;21.50;25.60;;;;;;447989;266;1078;-38
2022/03/09 03:03:44;;;;;;;;;;;21.50;25.70;;;;;;453265;261;1142;-38
2022/03/09 03:05:45;;;;;;;;;;;21.50;25.70;;;;;;453046;262;1078;-38
2022/03/09 03:07:46;;;;;;;;;;;21.50;25.70;;;;;;447604;266;1365;-38
2022/03/09 03:09:48;;;;;;;;;;;21.50;25.70;;;;;;453213;261;1133;-38
2022/03/09 03:11:49;;;;;;;;;;;21.50;25.70;;;;;;452963;262;1148;-38
2022/03/09 03:13:50;;;;;;;;;;;21.50;25.70;;;;;;447644;266;2133;-38
2022/03/09 03:15:52;;;;;;;;;;;21.50;25.70;;;;;;453270;261;1096;-38
2022/03/09 03:17:53;;;;;;;;;;;21.50;25.70;;;;;;452867;263;1079;-38
2022/03/09 03:19:54;;;;;;;;;;;21.50;25.70;;;;;;448013;266;1071;-39
2022/03/09 03:21:56;;;;;;;;;;;21.50;25.70;;;;;;452861;262;1091;-38
2022/03/09 03:23:57;;;;;;;;;;;21.50;25.70;;;;;;452951;262;1147;-38
2022/03/09 03:25:58;;;;;;;;;;;21.50;25.70;;;;;;447738;266;1111;-38
2022/03/09 03:27:59;;;;;;;;;;;21.50;25.70;;;;;;452830;262;1635;-38
2022/03/09 03:30:01;;;;;;;;;;;21.60;25.70;;;;;;452890;263;1121;-38
2022/03/09 03:32:02;;;;;;;;;;;21.50;25.70;;;;;;453237;262;1087;-38
2022/03/09 03:34:03;;;;;;;;;;;21.50;25.70;;;;;;448078;266;2208;-38
2022/03/09 03:36:05;;;;;;;;;;;21.50;25.70;;;;;;453264;261;1130;-38
2022/03/09 03:38:06;;;;;;;;;;;21.50;25.70;;;;;;453181;262;1048;-38
2022/03/09 03:40:07;;;;;;;;;;;21.50;25.70;;;;;;447800;266;1167;-38
2022/03/09 03:42:10;;;;;;;;;;;21.60;25.70;;;;;;452939;261;1146;-38
2022/03/09 03:44:10;;;;;;;;;;;21.60;25.70;;;;;;452786;263;2254;-38
2022/03/09 03:46:11;;;;;;;;;;;21.60;25.70;;;;;;447861;266;1124;-39
2022/03/09 03:48:13;;;;;;;;;;;21.60;25.70;;;;;;453233;261;1128;-39
2022/03/09 03:50:14;;;;;;;;;;;21.60;25.70;;;;;;453151;262;1119;-38
2022/03/09 03:52:15;;;;;;;;;;;21.60;25.70;;;;;;447595;266;1076;-38
2022/03/09 03:54:17;;;;;;;;;;;21.50;25.70;;;;;;452981;261;2201;-38
2022/03/09 03:56:18;;;;;;;;;;;21.50;25.70;;;;;;452815;263;1112;-38
2022/03/09 03:58:19;;;;;;;;;;;21.60;25.70;;;;;;448027;266;1200;-38
2022/03/09 04:00:23;;;;;;;;;;;21.60;25.70;;;;;;452856;262;1282;-39
2022/03/09 04:02:22;;;;;;;;;;;21.60;25.70;;;;;;453026;262;2373;-39
2022/03/09 04:04:24;;;;;;;;;;;21.60;25.70;;;;;;448017;266;1064;-39
2022/03/09 04:06:25;;;;;;;;;;;21.50;25.70;;;;;;453241;261;1099;-39
2022/03/09 04:08:26;;;;;;;;;;;21.50;25.70;;;;;;453224;262;1182;-39
2022/03/09 04:10:28;;;;;;;;;;;21.50;25.70;;;;;;447765;266;1081;-39
2022/03/09 04:12:29;;;;;;;;;;;21.60;25.80;;;;;;452830;262;1135;-39
2022/03/09 04:14:30;;;;;;;;;;;21.60;25.70;;;;;;453239;262;2220;-39
2022/03/09 04:16:32;;;;;;;;;;;21.50;25.70;;;;;;447627;266;1088;-38
2022/03/09 04:18:33;;;;;;;;;;;21.60;25.70;;;;;;453201;261;1104;-39
2022/03/09 04:20:34;;;;;;;;;;;21.60;25.70;;;;;;452995;262;1249;-38
2022/03/09 04:22:35;;;;;;;;;;;21.60;25.70;;;;;;447629;266;1084;-38
2022/03/09 04:24:37;;;;;;;;;;;21.60;25.70;;;;;;452860;262;1152;-38
2022/03/09 04:26:38;;;;;;;;;;;21.50;25.80;;;;;;452808;263;1107;-38
2022/03/09 04:28:39;;;;;;;;;;;21.50;25.80;;;;;;447738;266;1032;-38
2022/03/09 04:30:41;;;;;;;;;;;21.50;25.80;;;;;;452999;261;1259;-38
2022/03/09 04:32:42;;;;;;;;;;;21.50;25.80;;;;;;453011;262;1065;-38
2022/03/09 04:34:43;;;;;;;;;;;21.50;25.80;;;;;;447659;266;2137;-39
2022/03/09 04:36:45;;;;;;;;;;;21.50;25.80;;;;;;453242;261;1059;-39
2022/03/09 04:38:46;;;;;;;;;;;21.50;25.80;;;;;;453192;262;1192;-39
2022/03/09 04:40:47;;;;;;;;;;;21.50;25.70;;;;;;447597;266;1168;-39
2022/03/09 04:42:49;;;;;;;;;;;21.60;25.80;;;;;;453192;261;1245;-39
2022/03/09 04:44:50;;;;;;;;;;;21.50;25.80;;;;;;452866;263;1055;-39
2022/03/09 04:46:51;;;;;;;;;;;21.60;25.70;;;;;;447797;266;1172;-39
2022/03/09 04:48:53;;;;;;;;;;;21.50;25.70;;;;;;453180;261;1233;-39
2022/03/09 04:50:54;;;;;;;;;;;21.50;25.70;;;;;;453160;262;1103;-38
2022/03/09 04:52:55;;;;;;;;;;;21.60;25.80;;;;;;447937;266;1281;-38
2022/03/09 04:54:57;;;;;;;;;;;21.60;25.70;;;;;;452806;262;2258;-38
2022/03/09 04:56:58;;;;;;;;;;;21.60;25.70;;;;;;452809;262;1365;-38
2022/03/09 04:58:59;;;;;;;;;;;21.60;25.80;;;;;;447985;266;1214;-38
2022/03/09 05:01:01;;;;;;;;;;;21.60;25.80;;;;;;452814;262;1074;-38
2022/03/09 05:03:02;;;;;;;;;;;21.60;25.80;;;;;;452977;262;1183;-38
2022/03/09 05:05:03;;;;;;;;;;;21.60;25.80;;;;;;453234;262;1052;-38
2022/03/09 05:07:05;;;;;;;;;;;21.60;25.80;;;;;;447830;266;1095;-38
2022/03/09 05:09:06;;;;;;;;;;;21.60;25.80;;;;;;453174;261;1177;-38
2022/03/09 05:11:07;;;;;;;;;;;21.50;25.80;;;;;;453181;262;1076;-39
2022/03/09 05:13:08;;;;;;;;;;;21.60;25.80;;;;;;447631;266;2215;-39
2022/03/09 05:15:10;;;;;;;;;;;21.50;25.70;;;;;;452758;262;1113;-39
2022/03/09 05:17:11;;;;;;;;;;;21.60;25.80;;;;;;452763;263;1076;-39
2022/03/09 05:19:12;;;;;;;;;;;21.60;25.70;;;;;;448000;266;1067;-39
2022/03/09 05:21:14;;;;;;;;;;;21.60;25.80;;;;;;452791;262;1140;-39
2022/03/09 05:23:15;;;;;;;;;;;21.60;25.80;;;;;;452790;262;1091;-38
2022/03/09 05:25:16;;;;;;;;;;;21.60;25.80;;;;;;452847;262;1220;-38
2022/03/09 05:27:18;;;;;;;;;;;21.50;25.80;;;;;;447470;266;1219;-38
2022/03/09 05:29:19;;;;;;;;;;;21.50;25.80;;;;;;452727;262;1197;-38
2022/03/09 05:31:20;;;;;;;;;;;21.50;25.80;;;;;;453155;262;1269;-38
2022/03/09 05:33:22;;;;;;;;;;;21.50;25.80;;;;;;447763;266;2149;-38
2022/03/09 05:35:23;;;;;;;;;;;21.50;25.80;;;;;;452818;261;1263;-38
2022/03/09 05:37:24;;;;;;;;;;;21.50;25.80;;;;;;453030;262;1285;-38
2022/03/09 05:39:26;;;;;;;;;;;21.50;25.80;;;;;;447641;266;1101;-38
2022/03/09 05:41:27;;;;;;;;;;;21.50;25.80;;;;;;452614;261;1263;-38
2022/03/09 05:43:28;;;;;;;;;;;21.50;25.80;;;;;;452719;263;1250;-38
2022/03/09 05:45:30;;;;;;;;;;;21.50;25.80;;;;;;447670;266;1116;-38
2022/03/09 05:47:31;;;;;;;;;;;21.50;25.80;;;;;;452690;262;1065;-39
2022/03/09 05:49:32;;;;;;;;;;;21.50;25.80;;;;;;452704;262;1204;-39
2022/03/09 05:51:33;;;;;;;;;;;21.50;25.80;;;;;;447543;266;1233;-38
2022/03/09 05:53:35;;;;;;;;;;;21.50;25.80;;;;;;452763;261;2217;-38
2022/03/09 05:55:36;;;;;;;;;;;21.60;25.80;;;;;;452693;263;1516;-39
2022/03/09 05:57:37;;;;;;;;;;;21.50;25.80;;;;;;447581;266;1098;-38
2022/03/09 05:59:39;;;;;;;;;;;21.50;25.80;;;;;;452659;262;1085;-38
2022/03/09 06:01:40;;;;;;;;;;;21.50;25.70;;;;;;452735;262;1224;-38
2022/03/09 06:03:41;;;;;;;;;;;21.60;25.80;;;;;;447407;266;1082;-38
2022/03/09 06:05:43;;;;;;;;;;;21.60;25.80;;;;;;452535;262;1228;-38
2022/03/09 06:07:44;;;;;;;;;;;21.60;25.70;;;;;;452638;262;1109;-38
2022/03/09 06:09:45;;;;;;;;;;;21.60;25.70;;;;;;447443;266;1182;-38
2022/03/09 06:11:47;;;;;;;;;;;21.60;25.70;;;;;;452642;261;1312;-38
2022/03/09 06:13:48;;;;;;;;;;;21.60;25.70;;;;;;452546;262;2150;-38
2022/03/09 06:15:49;;;;;;;;;;;21.60;25.80;;;;;;447403;266;1245;-38
2022/03/09 06:17:51;;;;;;;;;;;21.60;25.80;;;;;;452649;261;1108;-38
2022/03/09 06:19:52;;;;;;;;;;;21.50;25.80;;;;;;452807;262;1094;-38
2022/03/09 06:21:53;;;;;;;;;;;21.60;25.80;;;;;;447452;266;1062;-38
2022/03/09 06:23:54;;;;;;;;;;;21.60;25.70;;;;;;452649;262;1070;-38
2022/03/09 06:25:56;;;;;;;;;;;21.60;25.80;;;;;;452774;262;1191;-38
2022/03/09 06:27:58;;;;;;;;;;;21.60;25.80;;;;;;447549;266;1059;-39
2022/03/09 06:29:59;;;;;;;;;;;21.60;25.80;;;;;;452540;263;2270;-38
2022/03/09 06:32:00;;;;;;;;;;;21.60;25.80;;;;;;452604;262;1416;-39
2022/03/09 06:34:01;;;;;;;;;;;21.60;25.80;;;;;;447522;266;2232;-39
2022/03/09 06:36:06;;;;;;;;;;;21.60;25.70;;;;;;452508;261;1132;-39
2022/03/09 06:38:04;;;;;;;;;;;21.50;25.80;;;;;;452396;263;1922;-38
2022/03/09 06:40:05;;;;;;;;;;;21.50;25.80;;;;;;447273;266;1150;-38
2022/03/09 06:42:07;;;;;;;;;;;21.60;25.80;;;;;;452442;261;1251;-39
2022/03/09 06:44:08;;;;;;;;;;;21.50;25.80;;;;;;452378;263;1278;-39
2022/03/09 06:46:09;;;;;;;;;;;21.50;25.80;;;;;;447281;266;1148;-38
2022/03/09 06:48:10;;;;;;;;;;;21.60;25.70;;;;;;452465;262;1127;-38
2022/03/09 06:50:12;;;;;;;;;;;21.60;25.80;;;;;;452539;262;1088;-38
2022/03/09 06:52:13;;;;;;;;;;;21.60;25.80;;;;;;447306;266;1134;-38
2022/03/09 06:54:14;;;;;;;;;;;21.60;25.80;;;;;;452657;261;2134;-38
2022/03/09 06:56:16;;;;;;;;;;;21.60;25.80;;;;;;452612;262;1345;-39
2022/03/09 06:58:17;;;;;;;;;;;21.60;25.80;;;;;;447475;266;1087;-39
2022/03/09 07:00:18;;;;;;;;;;;21.60;25.80;;;;;;452526;262;1068;-38
2022/03/09 07:02:20;;;;;;;;;;;21.60;25.80;;;;;;452499;263;1189;-38
2022/03/09 07:04:21;;;;;;;;;;;21.60;25.80;;;;;;447328;262;1198;-39
2022/03/09 07:06:22;;;;;;;;;;;21.70;25.80;;;;;;452401;261;1183;-38
2022/03/09 07:08:24;;;;;;;;;;;21.70;25.80;;;;;;452584;262;1136;-39
2022/03/09 07:10:25;;;;;;;;;;;21.70;25.80;;;;;;447440;266;1189;-39
2022/03/09 07:12:26;;;;;;;;;;;21.60;25.80;;;;;;452428;261;1299;-38
2022/03/09 07:14:28;;;;;;;;;;;21.70;25.80;;;;;;452393;262;2126;-38
2022/03/09 07:16:29;;;;;;;;;;;21.60;25.80;;;;;;447067;266;1578;-38
2022/03/09 07:18:30;;;;;;;;;;;21.60;25.80;;;;;;452438;261;1138;-38
2022/03/09 07:20:31;;;;;;;;;;;21.60;25.80;;;;;;452415;262;1439;-38
2022/03/09 07:22:33;;;;;;;;;;;21.60;25.80;;;;;;447139;266;1432;-38
2022/03/09 07:24:34;;;;;;;;;;;21.60;25.80;;;;;;452291;262;1245;-38
2022/03/09 07:26:40;;;;;;;;;;;21.60;25.80;;;;;;451983;263;1365;-38
2022/03/09 07:28:37;;;;;;;;;;;21.60;25.70;;;;;;447024;266;1977;-38
2022/03/09 07:30:38;;;;;;;;;;;21.60;25.70;;;;;;452377;261;1178;-38
2022/03/09 07:32:39;;;;;;;;;;;21.60;25.70;;;;;;452304;263;1135;-38
2022/03/09 07:34:41;;;;;;;;;;;21.60;25.80;;;;;;447028;266;2212;-38
2022/03/09 07:36:42;;;;;;;;;;;21.50;25.80;;;;;;452065;260;1160;-39
2022/03/09 07:38:43;;;;;;;;;;;21.60;25.70;;;;;;452350;262;1101;-38
2022/03/09 07:40:45;;;;;;;;;;;21.60;25.70;;;;;;447051;266;1320;-38
2022/03/09 07:42:46;;;;;;;;;;;21.70;25.70;;;;;;452233;262;1615;-39
2022/03/09 07:44:47;;;;;;;;;;;21.60;25.60;;;;;;452117;259;1425;-39
2022/03/09 07:46:49;;;;;;;;;;;21.60;25.60;;;;;;452087;263;1596;-39
2022/03/09 07:48:50;;;;;;;;;;;21.60;25.60;;;;;;447085;266;1148;-39
2022/03/09 07:50:51;;;;;;;;;;;21.60;25.70;;;;;;452278;261;1139;-39
2022/03/09 07:52:53;;;;;;;;;;;21.60;25.60;;;;;;452282;262;1150;-38
2022/03/09 07:54:54;;;;;;;;;;;21.60;25.60;;;;;;452295;262;2153;-38
2022/03/09 07:56:55;;;;;;;;;;;21.60;25.60;;;;;;446873;266;1158;-39
2022/03/09 07:58:56;;;;;;;;;;;21.70;25.60;;;;;;452353;261;1458;-39
2022/03/09 08:00:58;;;;;;;;;;;21.60;25.60;;;;;;452226;263;1398;-39
2022/03/09 08:02:59;;;;;;;;;;;21.60;25.60;;;;;;452561;262;1232;-39
2022/03/09 08:05:00;;;;;;;;;;;21.60;25.60;;;;;;451996;263;1126;-39
2022/03/09 08:07:02;;;;;;;;;;;21.60;25.60;;;;;;446879;266;1313;-39
2022/03/09 08:09:03;;;;;;;;;;;21.70;25.60;;;;;;452228;261;1125;-39
2022/03/09 08:11:04;;;;;;;;;;;21.60;25.60;;;;;;452140;263;1307;-39
2022/03/09 08:13:06;;;;;;;;;;;21.70;25.60;;;;;;446975;266;1240;-39
2022/03/09 08:15:07;;;;;;;;;;;21.60;25.60;;;;;;452132;261;2237;-39
2022/03/09 08:17:08;;;;;;;;;;;21.60;25.60;;;;;;452118;262;1258;-39
2022/03/09 08:19:10;;;;;;;;;;;21.60;25.60;;;;;;446958;266;1338;-39
2022/03/09 08:21:11;;;;;;;;;;;21.60;25.60;;;;;;452110;261;1227;-39
2022/03/09 08:23:12;;;;;;;;;;;21.60;25.60;;;;;;452128;263;1114;-39
2022/03/09 08:25:14;;;;;;;;;;;21.60;25.60;;;;;;446810;266;1214;-39
2022/03/09 08:27:15;;;;;;;;;;;21.60;25.60;;;;;;451901;262;1161;-39
2022/03/09 08:29:16;;;;;;;;;;;21.60;25.60;;;;;;446760;266;1226;-39
2022/03/09 08:31:17;;;;;;;;;;;21.50;25.60;;;;;;452008;261;1193;-39
2022/03/09 08:33:19;;;;;;;;;;;21.50;25.60;;;;;;452022;263;1073;-39
2022/03/09 08:35:20;;;;;;;;;;;21.50;25.60;;;;;;446802;266;2196;-39
2022/03/09 08:37:27;;;;;;;;;;;21.50;24.90;;;;;;507922;234;1061;-39
2022/03/09 08:39:28;;;;;;;;;;;21.50;25.60;;;;;;499627;238;1068;-41
2022/03/09 08:41:30;;;;;;;;;;;21.40;25.60;;;;;;499617;237;1115;-39
2022/03/09 08:43:31;;;;;;;;;;;21.40;25.60;;;;;;499758;237;1196;-38
2022/03/09 08:45:32;;;;;;;;;;;21.50;25.60;;;;;;499786;237;1084;-38
2022/03/09 08:47:34;;;;;;;;;;;21.50;25.60;;;;;;499840;237;1089;-38
2022/03/09 08:49:39;;;;;;;;;;;21.50;25.60;;;;;;499538;238;1232;-38
2022/03/09 08:51:37;;;;;;;;;;;21.50;25.60;;;;;;499257;238;2065;-38
2022/03/09 08:53:38;;;;;;;;;;;21.50;25.60;;;;;;499677;237;1071;-39
2022/03/09 08:55:39;;;;;;;;;;;21.50;25.60;;;;;;499536;237;2112;-38
2022/03/09 08:57:40;;;;;;;;;;;21.40;25.50;;;;;;499483;237;1309;-38
2022/03/09 08:59:44;;;;;;;;;;;21.40;25.50;;;;;;499603;237;1293;-38
2022/03/09 09:01:43;;;;;;;;;;;21.40;25.50;;;;;;499450;238;2323;-38
2022/03/09 09:03:45;;;;;;;;;;;21.40;25.60;;;;;;499750;237;1136;-38
2022/03/09 09:05:46;;;;;;;;;;;21.40;25.50;;;;;;499739;234;1325;-38
2022/03/09 09:07:47;;;;;;;;;;;21.40;25.50;;;;;;499697;237;1059;-38
2022/03/09 09:09:49;;;;;;;;;;;21.40;25.50;;;;;;499738;237;1088;-38
2022/03/09 09:11:50;;;;;;;;;;;21.40;25.50;;;;;;499703;237;1323;-38
2022/03/09 09:13:51;;;;;;;;;;;21.40;25.50;;;;;;499628;237;1076;-38
2022/03/09 09:15:53;;;;;;;;;;;21.40;25.50;;;;;;499595;237;2192;-38
2022/03/09 09:17:54;;;;;;;;;;;21.40;25.50;;;;;;499672;237;1070;-39
2022/03/09 09:19:55;;;;;;;;;;;21.40;25.40;;;;;;499627;237;1091;-38
2022/03/09 09:21:56;;;;;;;;;;;21.40;25.50;;;;;;499647;237;1277;-38
2022/03/09 09:23:58;;;;;;;;;;;21.40;25.50;;;;;;499728;237;1042;-38
2022/03/09 09:25:59;;;;;;;;;;;21.40;25.50;;;;;;499676;237;1454;-38
2022/03/09 09:28:00;;;;;;;;;;;21.40;25.50;;;;;;499740;237;1102;-38
2022/03/09 09:30:02;;;;;;;;;;;21.40;25.50;;;;;;499724;237;1095;-38
2022/03/09 09:32:03;;;;;;;;;;;21.40;25.40;;;;;;499746;237;1090;-38
2022/03/09 09:34:05;;;;;;;;;;;21.40;25.40;;;;;;499647;237;1214;-38
2022/03/09 09:36:06;;;;;;;;;;;21.40;25.40;;;;;;499567;237;2183;-38
2022/03/09 09:38:08;;;;;;;;;;;21.40;25.40;;;;;;499669;237;1209;-38
2022/03/09 09:40:09;;;;;;;;;;;21.40;25.40;;;;;;499725;237;1361;-38
2022/03/09 09:42:11;;;;;;;;;;;21.40;25.40;;;;;;499802;237;1267;-38
2022/03/09 09:44:11;;;;;;;;;;;21.40;25.40;;;;;;499709;237;1959;-38
2022/03/09 09:46:13;;;;;;;;;;;21.40;25.40;;;;;;499848;237;1214;-38
2022/03/09 09:48:14;;;;;;;;;;;21.40;25.40;;;;;;500104;237;1079;-38
2022/03/09 09:50:17;;;;;;;;;;;21.40;25.40;;;;;;499500;237;1054;-38
2022/03/09 09:52:17;;;;;;;;;;;21.40;25.40;;;;;;499348;237;1968;-38
2022/03/09 09:54:18;;;;;;;;;;;21.40;25.40;;;;;;499689;237;1047;-38
2022/03/09 09:56:20;;;;;;;;;;;21.40;25.40;;;;;;499610;237;2184;-38
2022/03/09 09:58:21;;;;;;;;;;;21.40;25.40;;;;;;499704;237;1148;-39
2022/03/09 10:00:22;;;;;;;;;;;21.40;25.30;;;;;;499620;237;1071;-39
2022/03/09 10:02:24;;;;;;;;;;;21.40;25.30;;;;;;499582;237;1084;-39
2022/03/09 10:04:25;;;;;;;;;;;21.40;25.30;;;;;;499636;237;1218;-38
2022/03/09 10:06:26;;;;;;;;;;;21.40;25.30;;;;;;499768;237;1107;-38
2022/03/09 10:08:28;;;;;;;;;;;21.40;25.30;;;;;;499635;237;1190;-38
2022/03/09 10:10:29;;;;;;;;;;;21.40;25.30;;;;;;499474;237;1153;-38
2022/03/09 10:12:30;;;;;;;;;;;21.40;25.30;;;;;;499425;237;1074;-38
2022/03/09 10:14:31;;;;;;;;;;;21.40;25.30;;;;;;499489;237;1075;-38
2022/03/09 10:16:33;;;;;;;;;;;21.40;25.30;;;;;;499382;237;2175;-38
2022/03/09 10:18:34;;;;;;;;;;;21.40;25.30;;;;;;499554;237;1120;-38
2022/03/09 10:20:35;;;;;;;;;;;21.40;25.30;;;;;;499524;237;1079;-38
2022/03/09 10:22:37;;;;;;;;;;;21.40;25.30;;;;;;499778;237;1187;-38
2022/03/09 10:24:38;;;;;;;;;;;21.40;25.30;;;;;;499639;237;1089;-38
2022/03/09 10:26:39;;;;;;;;;;;21.40;25.30;;;;;;500397;237;1224;-39
2022/03/09 10:28:41;;;;;;;;;;;21.40;25.20;;;;;;500370;237;875;-39
2022/03/09 10:30:42;;;;;;;;;;;21.40;25.30;;;;;;499889;237;930;-38
2022/03/09 10:32:43;;;;;;;;;;;21.40;25.30;;;;;;499745;237;1179;-39
2022/03/09 10:34:45;;;;;;;;;;;21.40;25.30;;;;;;499525;237;1173;-39
2022/03/09 10:36:46;;;;;;;;;;;21.40;25.30;;;;;;499574;237;2175;-38
2022/03/09 10:38:47;;;;;;;;;;;21.40;25.30;;;;;;499708;237;1209;-39
2022/03/09 10:40:49;;;;;;;;;;;21.40;25.20;;;;;;499597;237;1146;-39
2022/03/09 10:42:50;;;;;;;;;;;21.40;25.30;;;;;;499683;237;1177;-38
2022/03/09 10:44:51;;;;;;;;;;;21.40;25.20;;;;;;499710;237;1135;-39
2022/03/09 10:46:52;;;;;;;;;;;21.40;25.30;;;;;;499639;237;1085;-38
2022/03/09 10:48:54;;;;;;;;;;;21.30;25.20;;;;;;499689;237;1093;-39
2022/03/09 10:50:55;;;;;;;;;;;21.30;25.20;;;;;;499622;237;1358;-39
2022/03/09 10:52:57;;;;;;;;;;;21.40;25.20;;;;;;499653;237;1280;-39
2022/03/09 10:54:58;;;;;;;;;;;21.40;25.20;;;;;;499525;237;2129;-39
2022/03/09 10:56:59;;;;;;;;;;;21.40;25.20;;;;;;499439;237;2183;-39
2022/03/09 10:59:00;;;;;;;;;;;21.40;25.20;;;;;;499439;237;1135;-39
2022/03/09 11:01:02;;;;;;;;;;;21.40;25.20;;;;;;499555;237;1227;-38
2022/03/09 11:03:03;;;;;;;;;;;21.40;25.20;;;;;;499637;237;1200;-39
2022/03/09 11:05:05;;;;;;;;;;;21.30;25.20;;;;;;499723;237;1257;-39
2022/03/09 11:07:06;;;;;;;;;;;21.30;25.20;;;;;;499538;237;1085;-39
2022/03/09 11:09:07;;;;;;;;;;;21.40;25.20;;;;;;499501;237;1167;-39
2022/03/09 11:11:09;;;;;;;;;;;21.30;25.20;;;;;;499486;237;1047;-38
2022/03/09 11:13:10;;;;;;;;;;;21.30;25.20;;;;;;499418;237;1135;-38
2022/03/09 11:15:14;;;;;;;;;;;21.40;25.20;;;;;;499456;237;1171;-39
2022/03/09 11:17:16;;;;;;;;;;;21.30;25.10;;;;;;499262;238;2497;-38
2022/03/09 11:19:15;;;;;;;;;;;21.40;25.20;;;;;;499352;238;2360;-39
2022/03/09 11:21:16;;;;;;;;;;;21.30;25.10;;;;;;499435;237;1114;-39
2022/03/09 11:23:18;;;;;;;;;;;21.40;25.20;;;;;;499508;237;1287;-38
2022/03/09 11:25:19;;;;;;;;;;;21.30;25.10;;;;;;499583;237;1132;-39
2022/03/09 11:27:20;;;;;;;;;;;21.40;25.20;;;;;;499648;237;1075;-38
2022/03/09 11:29:22;;;;;;;;;;;21.40;25.10;;;;;;499649;237;1196;-39
2022/03/09 11:31:23;;;;;;;;;;;21.40;25.10;;;;;;499654;237;1091;-39
2022/03/09 11:33:24;;;;;;;;;;;21.40;25.10;;;;;;499633;237;1079;-39
2022/03/09 11:35:26;;;;;;;;;;;21.30;25.10;;;;;;499649;237;1083;-39
2022/03/09 11:37:27;;;;;;;;;;;21.30;25.10;;;;;;499557;237;2183;-38
2022/03/09 11:39:28;;;;;;;;;;;21.40;25.10;;;;;;499671;237;1220;-38
2022/03/09 11:41:31;;;;;;;;;;;21.40;25.10;;;;;;499812;237;1088;-38
2022/03/09 11:43:31;;;;;;;;;;;21.40;25.10;;;;;;499585;238;2414;-39
2022/03/09 11:45:32;;;;;;;;;;;21.30;25.10;;;;;;499673;237;1148;-39
2022/03/09 11:47:34;;;;;;;;;;;21.30;25.10;;;;;;499651;237;1112;-38
2022/03/09 11:49:36;;;;;;;;;;;21.30;25.10;;;;;;499606;237;1240;-38
2022/03/09 11:51:36;;;;;;;;;;;21.30;25.10;;;;;;499575;238;2193;-39
2022/03/09 11:53:38;;;;;;;;;;;21.30;25.10;;;;;;499665;237;1200;-39
2022/03/09 11:55:39;;;;;;;;;;;21.40;25.10;;;;;;499475;237;1163;-38
2022/03/09 11:57:40;;;;;;;;;;;21.30;25.00;;;;;;499530;237;2180;-38
2022/03/09 11:59:41;;;;;;;;;;;21.30;25.00;;;;;;499666;237;1061;-39